Latest Weather Observations for Kempsey Airport

IDN60801

Issued at 11:03 pm EDT Friday 14 December 2018 (issued every 10 minutes, with the page automatically refreshed every 10 minutes)

About weather observations | Map of weather stations | Latest weather observations for NSW | Other Formats
Station Details ID: 059007 Name: KEMPSEY AIRPORT AWS Lat: -31.07 Lon: 152.77 Height: 13.0 m
Data from the previous 72 hours. | See also: Recent months at Kempsey Airport
Date/Time
EDT
Temp
°C
App
Temp
°C
Dew
Point
°C
Rel
Hum
%
Delta-T
°C
Wind Press
QNH
hPa
Press
MSL
hPa
Rain since
9am
mm
Dir  Spd
km/h
Gust
km/h
Spd
kts
Gust
kts
14/11:00pm 23.1 25.3 20.4 85 1.8 NE 9 13 5 7 1006.2 1006.1 0.0
14/10:30pm 23.6 25.1 20.5 83 2.0 ENE 13 17 7 9 1005.8 1005.7 0.0
14/10:00pm 23.8 24.9 20.5 82 2.2 ENE 15 20 8 11 1005.8 1005.7 0.0
14/09:30pm 23.9 25.8 20.6 82 2.2 ENE 11 17 6 9 1006.0 1005.9 0.0
14/09:00pm 23.8 26.0 20.5 82 2.2 SE 9 13 5 7 1004.9 1004.8 0.0
14/08:30pm 23.9 27.7 20.2 80 2.4 CALM 0 0 0 0 1004.7 1004.6 0.0
14/08:00pm 24.2 26.8 20.1 78 2.7 ENE 6 9 3 5 1004.3 1004.2 0.0
14/07:30pm 24.7 25.1 19.8 74 3.2 ENE 17 24 9 13 1003.5 1003.4 0.0
14/07:00pm 25.4 26.2 19.1 68 4.0 NE 13 17 7 9 1002.8 1002.7 0.0
14/06:30pm 25.9 25.5 18.8 65 4.5 ENE 19 26 10 14 1001.7 1001.6 0.0
14/06:00pm 25.6 27.1 19.7 70 3.8 NE 11 17 6 9 1001.5 1001.4 0.0
14/05:30pm 25.9 26.8 20.0 70 3.8 ENE 15 26 8 14 1001.4 1001.3 0.0
14/05:00pm 28.2 25.8 20.0 61 5.4 NNE 32 46 17 25 1000.8 1000.7 0.0
14/04:30pm 25.5 25.6 19.9 71 3.6 ENE 19 32 10 17 1000.9 1000.8 0.0
14/04:00pm 26.7 24.6 19.8 66 4.5 NE 30 41 16 22 1001.3 1001.2 0.0
14/03:30pm 29.5 28.3 20.9 60 5.7 NE 28 43 15 23 1001.3 1001.2 0.0
14/03:00pm 29.9 28.9 20.5 57 6.2 ENE 26 39 14 21 1001.0 1000.9 0.0
14/02:30pm 30.7 29.9 20.9 56 6.5 NNE 26 39 14 21 1001.1 1001.0 0.0
14/02:00pm 31.0 31.0 20.9 55 6.8 ENE 22 30 12 16 1001.2 1001.1 0.0
14/01:30pm 30.7 30.8 20.3 53 6.9 NE 20 28 11 15 1001.4 1001.3 0.0
14/01:00pm 30.9 31.1 20.5 54 6.9 ENE 20 30 11 16 1001.7 1001.6 0.0
14/12:30pm 30.8 31.1 20.7 55 6.7 E 20 26 11 14 1002.1 1002.0 0.0
14/12:00pm 30.6 31.1 20.8 56 6.6 E 19 26 10 14 1002.3 1002.2 0.0
14/11:30am 30.2 31.0 20.7 56 6.3 E 17 26 9 14 1002.5 1002.4 0.0
14/11:00am 28.8 29.5 20.5 61 5.5 E 17 22 9 12 1002.5 1002.4 0.0
14/10:30am 28.2 30.0 21.2 65 4.7 E 13 20 7 11 1002.6 1002.5 0.0
14/10:00am 27.3 28.8 20.6 67 4.4 ESE 13 19 7 10 1002.5 1002.4 0.0
14/09:30am 26.3 29.1 20.8 71 3.6 NE 7 13 4 7 1002.5 1002.4 0.0
14/09:00am 24.5 27.4 19.8 75 3.0 ENE 4 9 2 5 1002.6 1002.5 7.4
14/08:30am 22.0 25.5 19.5 86 1.6 CALM 0 0 0 0 1003.0 1002.9 7.4
14/08:00am 21.0 24.6 19.7 92 0.8 CALM 0 0 0 0 1003.0 1002.9 7.4
14/07:30am 20.2 23.5 19.2 94 0.6 CALM 0 0 0 0 1003.0 1002.9 7.4
14/07:00am 20.1 23.4 19.1 94 0.6 CALM 0 0 0 0 1002.8 1002.7 7.4
14/06:30am 19.8 22.6 18.8 94 0.6 NW 2 9 1 5 1002.3 1002.2 7.4
14/06:00am 19.7 21.1 18.7 94 0.6 WNW 9 13 5 7 1001.8 1001.7 7.4
14/05:30am 19.4 21.1 18.4 94 0.6 NNW 7 11 4 6 1001.4 1001.3 7.4
14/05:00am 18.8 21.5 17.8 94 0.6 CALM 0 0 0 0 1001.1 1001.0 7.4
14/04:30am 18.8 20.4 17.8 94 0.6 WNW 6 9 3 5 1001.0 1000.9 7.4
14/04:00am 18.4 21.0 17.4 94 0.6 CALM 0 0 0 0 1000.9 1000.8 7.4
14/03:30am 17.7 19.9 16.4 92 0.8 CALM 0 0 0 0 1000.9 1000.8 7.4
14/03:00am 18.4 20.9 17.2 93 0.7 CALM 0 0 0 0 1001.4 1001.3 7.4
14/02:30am 18.9 21.6 17.7 93 0.7 CALM 0 2 0 1 1001.4 1001.3 7.4
14/02:00am 18.6 20.4 17.3 92 0.8 W 4 7 2 4 1001.3 1001.2 7.4
14/01:30am 19.6 22.2 18.4 93 0.7 NNE 2 6 1 3 1001.7 1001.6 7.4
14/01:00am 19.8 21.7 18.6 93 0.8 S 6 9 3 5 1002.0 1001.9 7.2
14/12:30am 19.7 22.7 18.4 92 0.8 CALM 0 0 0 0 1002.1 1002.0 7.2
14/12:00am 19.5 22.2 17.8 90 1.0 CALM 0 0 0 0 1002.7 1002.6 7.2
 
Date/Time
EDT
Temp
°C
App
Temp
°C
Dew
Point
°C
Rel
Hum
%
Delta-T
°C
Wind Press
QNH
hPa
Press
MSL
hPa
Rain since
9am
mm
Dir  Spd
km/h
Gust
km/h
Spd
kts
Gust
kts
13/11:30pm 20.2 22.6 18.7 91 0.9 N 4 7 2 4 1003.1 1003.0 7.2
13/11:00pm 20.7 24.0 19.0 90 1.1 CALM 0 6 0 3 1003.7 1003.6 7.2
13/10:30pm 20.9 23.1 19.2 90 1.1 W 6 11 3 6 1004.0 1003.9 7.2
13/10:00pm 21.4 23.9 19.9 91 1.0 N 6 9 3 5 1004.0 1003.9 7.2
13/09:30pm 21.4 23.8 19.7 90 1.1 NNE 6 9 3 5 1003.6 1003.5 7.2
13/09:00pm 21.5 24.6 19.4 88 1.3 WSW 2 7 1 4 1003.3 1003.2 7.2
13/08:30pm 21.6 21.9 19.5 88 1.3 NW 17 20 9 11 1003.2 1003.1 6.8
13/08:00pm 22.0 23.7 20.1 89 1.2 NNW 11 17 6 9 1003.8 1003.7 2.0
13/07:30pm 22.0 23.9 19.7 87 1.5 NE 9 11 5 6 1001.8 1001.7 1.2
13/07:00pm 22.3 24.8 19.8 86 1.6 NNE 6 11 3 6 1002.2 1002.1 0.6
13/06:30pm 22.8 23.4 19.4 81 2.2 NE 15 20 8 11 1001.7 1001.6 0.4
13/06:00pm 24.8 26.2 18.7 69 3.9 NE 9 15 5 8 1001.9 1001.8 0.0
13/05:30pm 25.1 25.4 18.8 68 4.0 NE 15 22 8 12 1000.8 1000.7 0.0
13/05:00pm 25.9 24.4 18.6 64 4.7 NNE 24 37 13 20 1000.4 1000.3 0.0
13/04:30pm 27.2 25.5 18.2 58 5.7 NNE 24 32 13 17 1000.7 1000.6 0.0
13/04:00pm 27.7 26.4 18.1 56 6.1 NE 22 35 12 19 1000.9 1000.8 0.0
13/03:30pm 28.2 27.1 18.6 56 6.2 NE 22 30 12 16 1001.5 1001.4 0.0
13/03:00pm 29.1 28.5 18.8 53 6.7 NNE 20 28 11 15 1002.2 1002.1 0.0
13/02:30pm 28.5 27.9 18.9 56 6.2 NE 20 28 11 15 1002.7 1002.6 0.0
13/02:00pm 28.2 28.4 19.4 59 5.7 NE 17 24 9 13 1003.1 1003.0 0.0
13/01:30pm 27.5 27.7 19.3 61 5.3 ENE 17 20 9 11 1003.6 1003.5 0.0
13/01:00pm 27.8 28.7 20.1 63 5.1 ENE 15 22 8 12 1003.9 1003.8 0.0
13/12:30pm 27.5 28.0 19.3 61 5.3 ENE 15 24 8 13 1004.1 1004.0 0.0
13/12:00pm 28.0 29.1 18.1 55 6.3 NNE 9 19 5 10 1004.2 1004.1 0.0
13/11:30am 27.5 27.8 17.9 55 6.1 NNE 13 19 7 10 1004.3 1004.2 0.0
13/11:00am 26.6 27.1 17.4 57 5.8 N 11 15 6 8 1004.8 1004.7 0.0
13/10:30am 25.7 25.7 17.1 59 5.3 N 13 19 7 10 1005.2 1005.1 0.0
13/10:00am 25.5 25.0 17.7 62 4.9 NE 17 20 9 11 1005.0 1004.9 0.0
13/09:30am 24.1 25.6 19.0 73 3.2 NNE 9 15 5 8 1006.2 1006.1 0.0
13/09:00am 22.7 26.0 19.1 80 2.3 CALM 0 7 0 4 1006.7 1006.6 0.0
13/08:30am 22.0 24.8 18.8 82 2.0 SSW 2 7 1 4 1007.2 1007.1 0.0
13/08:00am 20.2 23.5 19.0 93 0.8 CALM 0 0 0 0 1007.6 1007.5 0.0
13/07:30am 19.3 21.9 18.3 94 0.6 W 2 6 1 3 1007.6 1007.5 0.0
13/07:00am 18.7 20.2 17.7 94 0.6 NW 6 9 3 5 1007.9 1007.8 0.0
13/06:30am 18.3 19.1 17.3 94 0.6 W 9 11 5 6 1008.1 1008.0 0.0
13/06:00am 17.3 19.4 16.2 93 0.7 CALM 0 0 0 0 1007.6 1007.5 0.0
13/05:30am 17.5 19.7 16.4 93 0.7 CALM 0 0 0 0 1007.7 1007.6 0.0
13/05:00am 17.7 20.0 16.7 94 0.6 CALM 0 0 0 0 1008.0 1007.9 0.0
13/04:30am 17.3 19.0 16.2 93 0.7 WSW 2 6 1 3 1008.1 1008.0 0.0
13/04:00am 16.4 18.1 15.1 92 0.8 CALM 0 0 0 0 1007.8 1007.7 0.0
13/03:30am 17.6 19.7 16.3 92 0.8 CALM 0 0 0 0 1007.7 1007.6 0.0
13/03:00am 17.8 20.0 16.5 92 0.8 CALM 0 0 0 0 1008.1 1008.0 0.0
13/02:30am 18.4 20.8 17.1 92 0.8 CALM 0 0 0 0 1008.5 1008.4 0.0
13/02:00am 18.2 20.6 16.9 92 0.8 CALM 0 0 0 0 1008.9 1008.8 0.0
13/01:30am 18.5 20.8 16.8 90 1.0 CALM 0 0 0 0 1009.2 1009.1 0.0
13/01:00am 19.2 21.7 17.3 89 1.2 CALM 0 0 0 0 1009.8 1009.7 0.0
13/12:30am 19.7 22.4 17.7 88 1.2 CALM 0 0 0 0 1009.7 1009.6 0.0
13/12:00am 20.0 22.7 17.8 87 1.4 CALM 0 0 0 0 1010.4 1010.3 0.0
 
Date/Time
EDT
Temp
°C
App
Temp
°C
Dew
Point
°C
Rel
Hum
%
Delta-T
°C
Wind Press
QNH
hPa
Press
MSL
hPa
Rain since
9am
mm
Dir  Spd
km/h
Gust
km/h
Spd
kts
Gust
kts
12/11:30pm 20.0 22.7 17.8 87 1.4 CALM 0 0 0 0 1010.4 1010.3 0.0
12/11:00pm 20.3 23.1 17.9 86 1.5 CALM 0 0 0 0 1011.1 1011.0 0.0
12/10:30pm 20.4 23.1 17.8 85 1.6 CALM 0 0 0 0 1011.4 1011.3 0.0
12/10:00pm 20.4 23.0 17.4 83 1.8 CALM 0 0 0 0 1011.3 1011.2 0.0
12/09:30pm 21.1 22.6 17.7 81 2.1 NNE 6 7 3 4 1011.2 1011.1 0.0
12/09:00pm 21.5 23.1 17.9 80 2.2 NNE 6 9 3 5 1011.4 1011.3 0.0
12/08:30pm 22.1 23.6 18.1 78 2.5 NE 7 11 4 6 1011.6 1011.5 0.0
12/08:00pm 22.4 23.2 18.2 77 2.6 NNE 11 15 6 8 1011.7 1011.6 0.0
12/07:30pm 22.7 23.9 18.3 76 2.8 NE 9 13 5 7 1011.8 1011.7 0.0
12/07:00pm 23.1 23.1 18.2 74 3.1 NE 15 19 8 10 1011.4 1011.3 0.0
12/06:30pm 23.2 23.7 18.3 74 3.1 ENE 13 17 7 9 1011.3 1011.2 0.0
12/06:00pm 23.4 23.9 18.3 73 3.2 ENE 13 17 7 9 1011.2 1011.1 0.0
12/05:30pm 23.6 23.9 18.0 71 3.5 ENE 13 19 7 10 1011.2 1011.1 0.0
12/05:00pm 24.3 24.6 18.0 68 4.0 E 13 19 7 10 1011.3 1011.2 0.0
12/04:30pm 24.3 25.4 18.0 68 4.0 E 9 13 5 7 1011.3 1011.2 0.0
12/04:00pm 24.5 25.4 18.4 69 3.9 ESE 11 15 6 8 1011.5 1011.4 0.0
12/03:30pm 24.3 24.8 17.5 66 4.2 SE 11 15 6 8 1012.1 1012.0 0.0
12/03:00pm 25.0 24.4 16.7 60 5.1 E 15 20 8 11 1012.5 1012.4 0.0
12/02:30pm 24.1 23.9 17.6 67 4.1 ESE 15 19 8 10 1012.9 1012.8 0.0
12/02:00pm 24.0 23.7 18.2 70 3.6 E 17 20 9 11 1013.1 1013.0 0.0
12/01:30pm 22.8 22.5 18.3 76 2.8 ESE 17 20 9 11 1013.6 1013.5 0.0
12/01:00pm 24.4 25.5 17.9 67 4.1 NW 9 13 5 7 1013.9 1013.8 0.0
12/12:30pm 24.6 25.4 18.1 67 4.1 NW 11 17 6 9 1014.3 1014.2 0.0
12/12:00pm 24.3 25.2 18.5 70 3.7 NW 11 17 6 9 1014.4 1014.3 0.0
12/11:30am 24.7 25.8 17.2 63 4.7 SW 7 11 4 6 1014.7 1014.6 0.0
12/11:00am 24.3 25.7 17.8 67 4.1 W 7 13 4 7 1015.0 1014.9 0.0
12/10:30am 23.2 25.3 18.1 73 3.2 SW 4 9 2 5 1015.4 1015.3 0.0
12/10:00am 22.6 23.9 18.4 77 2.6 SW 9 15 5 8 1015.5 1015.4 0.0
12/09:30am 22.0 23.4 18.6 81 2.1 WSW 9 13 5 7 1015.6 1015.5 0.0
12/09:00am 21.5 22.8 18.5 83 1.9 WSW 9 15 5 8 1015.7 1015.6 1.4
12/08:30am 20.5 22.1 18.3 87 1.4 SW 7 9 4 5 1015.4 1015.3 1.4
12/08:00am 20.1 23.1 18.4 90 1.1 CALM 0 0 0 0 1015.7 1015.6 1.4
12/07:30am 19.8 21.4 18.3 91 0.9 WSW 7 9 4 5 1015.5 1015.4 1.4
12/07:00am 19.5 22.3 18.0 91 0.9 CALM 0 0 0 0 1014.9 1014.8 1.4
12/06:30am 19.4 22.3 18.1 92 0.8 CALM 0 0 0 0 1015.0 1014.9 1.4
12/06:00am 19.2 22.0 17.9 92 0.8 CALM 0 0 0 0 1014.8 1014.7 1.2
12/05:30am 19.2 22.0 17.9 92 0.8 CALM 0 0 0 0 1014.9 1014.8 1.2
12/05:00am 19.2 22.0 17.9 92 0.8 CALM 0 0 0 0 1014.7 1014.6 1.2
12/04:30am 19.0 21.3 17.7 92 0.8 WSW 2 6 1 3 1014.4 1014.3 1.2
12/04:00am 19.0 21.7 17.7 92 0.8 CALM 0 0 0 0 1014.4 1014.3 1.2
12/03:30am 19.1 20.7 17.8 92 0.8 SSW 6 7 3 4 1014.6 1014.5 1.2
12/03:00am 19.4 21.0 18.2 93 0.7 W 7 9 4 5 1014.6 1014.5 1.2
12/02:30am 19.2 20.6 17.9 92 0.8 SW 7 9 4 5 1015.0 1014.9 1.2
12/02:00am 19.3 20.8 18.0 92 0.8 WSW 7 9 4 5 1015.1 1015.0 1.0
12/01:30am 19.3 20.8 18.1 93 0.7 WSW 7 7 4 4 1015.7 1015.6 1.0
12/01:00am 19.0 21.6 17.5 91 0.9 CALM 0 0 0 0 1016.0 1015.9 1.0
12/12:30am 18.8 21.3 17.3 91 0.9 CALM 0 0 0 0 1016.3 1016.2 1.0
12/12:00am 19.2 21.9 17.7 91 0.9 CALM 0 0 0 0 1016.4 1016.3 1.0
 
Date/Time
EDT
Temp
°C
App
Temp
°C
Dew
Point
°C
Rel
Hum
%
Delta-T
°C
Wind Press
QNH
hPa
Press
MSL
hPa
Rain since
9am
mm
Dir  Spd
km/h
Gust
km/h
Spd
kts
Gust
kts
11/11:30pm 19.4 22.1 17.7 90 1.0 CALM 0 0 0 0 1016.7 1016.6 1.0

Other Formats:

Comma delimited format used in spreadsheet applications
http://www.bom.gov.au/fwo/IDN60801/IDN60801.94785.axf

JavaScript Object Notation format (JSON) in row-major order
http://www.bom.gov.au/fwo/IDN60801/IDN60801.94785.json